Time;durP1;ratioP1;P1;durP2;ratioP2;P2;SDS_P1;SDS_P2;PMS_P1;PMS_P2;Temp;Humidity;BMP_temperature;BMP_pressure;BME280_temperature;BME280_humidity;BME280_pressure;Samples;Min_cycle;Max_cycle;Signal;HPM_P1;HPM_P2
2021/01/28 00:01:01;;;;;;;0.57;0.50;;;20.10;44.90;;;;;;6259581;28;20016;-58
2021/01/28 00:04:02;;;;;;;0.50;0.50;;;20.10;44.60;;;;;;6242391;28;20497;-60
2021/01/28 00:07:02;;;;;;;0.52;0.50;;;20.10;44.60;;;;;;6268105;28;20033;-60
2021/01/28 00:10:04;;;;;;;0.90;0.70;;;20.10;44.80;;;;;;6250859;28;20062;-59
2021/01/28 00:13:07;;;;;;;0.90;0.63;;;20.10;44.80;;;;;;6268910;28;20537;-60
2021/01/28 00:16:08;;;;;;;1.40;0.80;;;20.10;45.00;;;;;;6268938;28;20027;-59
2021/01/28 00:19:08;;;;;;;2.35;0.90;;;20.10;44.80;;;;;;6260774;28;20544;-60
2021/01/28 00:22:09;;;;;;;0.90;0.77;;;20.10;44.80;;;;;;6243319;28;20562;-60
2021/01/28 00:25:16;;;;;;;1.60;0.70;;;20.00;44.80;;;;;;6247043;28;20450;-59
2021/01/28 00:28:20;;;;;;;0.65;0.63;;;20.10;44.80;;;;;;6268818;28;20551;-59
2021/01/28 00:31:21;;;;;;;0.70;0.60;;;20.10;44.90;;;;;;6245624;28;20083;-60
2021/01/28 00:34:22;;;;;;;1.10;0.60;;;20.10;44.70;;;;;;6260106;28;20129;-60
2021/01/28 00:37:22;;;;;;;1.33;0.88;;;20.00;44.80;;;;;;6243589;28;20033;-60
2021/01/28 00:40:24;;;;;;;0.60;0.50;;;20.00;44.60;;;;;;6259361;28;20060;-61
2021/01/28 00:43:25;;;;;;;0.55;0.52;;;20.10;44.70;;;;;;6238635;28;20059;-60
2021/01/28 00:46:26;;;;;;;0.90;0.57;;;20.10;44.60;;;;;;6254326;28;20032;-58
2021/01/28 00:49:26;;;;;;;0.70;0.55;;;20.10;44.80;;;;;;6267751;28;20025;-62
2021/01/28 00:52:27;;;;;;;0.50;0.50;;;20.00;44.80;;;;;;6260174;28;20029;-60
2021/01/28 00:55:27;;;;;;;0.82;0.70;;;20.00;45.00;;;;;;6250439;28;20107;-61
2021/01/28 00:58:28;;;;;;;0.73;0.73;;;20.00;45.40;;;;;;6225666;28;20034;-60
2021/01/28 01:01:28;;;;;;;0.63;0.63;;;20.00;44.90;;;;;;6225523;28;20045;-59
2021/01/28 01:04:29;;;;;;;0.80;0.50;;;20.00;44.80;;;;;;6247555;28;20033;-60
2021/01/28 01:07:29;;;;;;;0.75;0.60;;;20.00;44.80;;;;;;6268401;28;20031;-60
2021/01/28 01:10:41;;;;;;;0.50;0.45;;;20.00;45.00;;;;;;6255231;28;20028;-59
2021/01/28 01:13:42;;;;;;;0.68;0.57;;;20.00;44.90;;;;;;6243314;28;20018;-59
2021/01/28 01:16:43;;;;;;;0.45;0.45;;;20.00;45.00;;;;;;6265635;28;20081;-61
2021/01/28 01:19:43;;;;;;;0.93;0.60;;;20.00;45.10;;;;;;6263336;28;20063;-60
2021/01/28 01:22:44;;;;;;;0.95;0.63;;;20.00;45.10;;;;;;6258824;28;20029;-59
2021/01/28 01:25:45;;;;;;;0.60;0.60;;;20.00;44.80;;;;;;6255510;28;20021;-60
2021/01/28 01:28:45;;;;;;;0.50;0.50;;;20.00;44.90;;;;;;6266988;28;20584;-59
2021/01/28 01:31:46;;;;;;;0.70;0.60;;;20.00;44.80;;;;;;6254232;28;20520;-60
2021/01/28 01:34:46;;;;;;;0.73;0.50;;;20.00;44.80;;;;;;6264416;28;20045;-61
2021/01/28 01:37:47;;;;;;;0.57;0.55;;;20.00;44.80;;;;;;6257267;28;20478;-59
2021/01/28 01:40:53;;;;;;;0.65;0.60;;;20.00;44.70;;;;;;6255829;28;20037;-60
2021/01/28 01:44:01;;;;;;;0.43;0.43;;;20.00;44.80;;;;;;6234121;28;20045;-59
2021/01/28 01:47:15;;;;;;;0.40;0.40;;;20.00;44.90;;;;;;6245353;28;20109;-60
2021/01/28 01:50:37;;;;;;;0.80;0.70;;;20.00;44.90;;;;;;6266125;28;20086;-60
2021/01/28 01:53:47;;;;;;;0.43;0.43;;;20.00;44.70;;;;;;6248756;28;20025;-60
2021/01/28 01:56:56;;;;;;;0.50;0.50;;;20.00;44.70;;;;;;6266512;28;20081;-58
2021/01/28 02:00:05;;;;;;;0.75;0.57;;;20.00;44.90;;;;;;6265987;28;20021;-60
2021/01/28 02:03:10;;;;;;;0.60;0.50;;;20.00;44.70;;;;;;6261344;28;20020;-60
2021/01/28 02:06:19;;;;;;;0.85;0.65;;;20.00;45.00;;;;;;6266883;28;20029;-61
2021/01/28 02:09:20;;;;;;;0.50;0.50;;;20.00;45.10;;;;;;6266791;28;20102;-59
2021/01/28 02:12:20;;;;;;;0.60;0.60;;;20.00;45.00;;;;;;6263511;28;20444;-60
2021/01/28 02:15:24;;;;;;;1.23;0.57;;;20.00;44.90;;;;;;6264274;28;20087;-60
2021/01/28 02:18:24;;;;;;;1.13;0.50;;;20.00;45.00;;;;;;6256518;28;20017;-60
2021/01/28 02:21:27;;;;;;;0.32;0.32;;;19.90;44.80;;;;;;6237395;28;20037;-61
2021/01/28 02:24:58;;;;;;;0.73;0.50;;;19.90;44.80;;;;;;6262848;28;20024;-59
2021/01/28 02:28:06;;;;;;;0.68;0.50;;;19.90;44.80;;;;;;6268861;28;20087;-60
2021/01/28 02:31:08;;;;;;;0.60;0.60;;;19.90;44.80;;;;;;6257585;28;20025;-61
2021/01/28 02:34:08;;;;;;;0.40;0.40;;;19.90;44.80;;;;;;6254155;28;20083;-59
2021/01/28 02:37:13;;;;;;;0.40;0.40;;;19.90;44.80;;;;;;6261971;28;20021;-57
2021/01/28 02:40:17;;;;;;;0.40;0.40;;;19.90;44.80;;;;;;6271202;28;20025;-59
2021/01/28 02:43:17;;;;;;;1.42;0.60;;;19.90;44.80;;;;;;6251149;28;20572;-57
2021/01/28 02:46:19;;;;;;;0.45;0.40;;;19.90;44.80;;;;;;6271229;28;20025;-57
2021/01/28 02:49:19;;;;;;;0.57;0.52;;;19.90;44.80;;;;;;6269003;28;20505;-57
2021/01/28 02:52:20;;;;;;;0.52;0.50;;;19.90;45.20;;;;;;6255313;28;20033;-59
2021/01/28 02:55:21;;;;;;;0.60;0.40;;;19.90;45.10;;;;;;6269381;28;20033;-58
2021/01/28 02:58:22;;;;;;;0.30;0.30;;;19.90;44.80;;;;;;6257275;28;20021;-58
2021/01/28 03:01:23;;;;;;;0.47;0.47;;;19.90;44.80;;;;;;6265546;28;20449;-55
2021/01/28 03:04:23;;;;;;;0.40;0.30;;;19.90;44.90;;;;;;6259875;28;20033;-58
2021/01/28 03:07:24;;;;;;;0.98;0.50;;;19.90;44.80;;;;;;6270675;28;20029;-59
2021/01/28 03:10:24;;;;;;;0.43;0.43;;;19.90;44.80;;;;;;6270526;28;20032;-61
2021/01/28 03:13:26;;;;;;;0.40;0.40;;;19.90;44.80;;;;;;6250315;28;20421;-61
2021/01/28 03:16:26;;;;;;;0.50;0.50;;;19.90;44.80;;;;;;6246126;28;20234;-60
2021/01/28 03:19:27;;;;;;;0.55;0.47;;;19.90;44.80;;;;;;6257815;28;20386;-61
2021/01/28 03:22:27;;;;;;;0.70;0.60;;;19.90;44.80;;;;;;6258444;28;20030;-61
2021/01/28 03:25:28;;;;;;;0.60;0.50;;;19.90;44.90;;;;;;6265529;28;20047;-59
2021/01/28 03:28:28;;;;;;;0.55;0.50;;;19.90;44.90;;;;;;6267497;28;20555;-61
2021/01/28 03:31:29;;;;;;;0.65;0.45;;;19.90;44.90;;;;;;6245961;28;20060;-61
2021/01/28 03:34:30;;;;;;;0.50;0.50;;;19.90;44.90;;;;;;6269474;28;20049;-61
2021/01/28 03:37:30;;;;;;;0.40;0.40;;;19.90;44.80;;;;;;6267541;28;20020;-60
2021/01/28 03:40:32;;;;;;;2.00;0.70;;;19.90;44.90;;;;;;6262807;28;20021;-60
2021/01/28 03:43:32;;;;;;;0.68;0.47;;;19.90;45.10;;;;;;6253147;28;20418;-61
2021/01/28 03:46:34;;;;;;;0.70;0.68;;;19.90;44.80;;;;;;6270238;28;20078;-61
2021/01/28 03:49:35;;;;;;;0.40;0.40;;;19.90;44.80;;;;;;6270187;28;20036;-59
2021/01/28 03:52:35;;;;;;;0.40;0.40;;;19.90;44.90;;;;;;6255646;28;20021;-61
2021/01/28 03:55:35;;;;;;;0.57;0.40;;;19.90;45.00;;;;;;6261442;28;20428;-60
2021/01/28 03:58:36;;;;;;;0.68;0.40;;;19.90;45.00;;;;;;6255510;28;20037;-61
2021/01/28 04:01:37;;;;;;;0.47;0.40;;;19.90;45.00;;;;;;6268735;28;20040;-61
2021/01/28 04:04:37;;;;;;;0.40;0.30;;;19.90;44.80;;;;;;6269249;28;20025;-61
2021/01/28 04:07:38;;;;;;;0.40;0.40;;;19.90;44.80;;;;;;6269561;28;20502;-61
2021/01/28 04:10:39;;;;;;;0.50;0.40;;;19.90;44.80;;;;;;6268967;28;20071;-61
2021/01/28 04:13:40;;;;;;;0.40;0.35;;;19.90;44.90;;;;;;6229629;28;20030;-61
2021/01/28 04:16:40;;;;;;;0.40;0.40;;;19.90;44.90;;;;;;6267252;28;20060;-60
2021/01/28 04:19:41;;;;;;;0.47;0.47;;;19.90;44.90;;;;;;6253669;28;20029;-61
2021/01/28 04:22:41;;;;;;;0.50;0.43;;;19.90;44.90;;;;;;6246035;28;20075;-61
2021/01/28 04:25:42;;;;;;;0.65;0.50;;;19.90;45.00;;;;;;6257779;28;20458;-61
2021/01/28 04:28:42;;;;;;;0.47;0.40;;;19.90;44.90;;;;;;6252408;28;20030;-60
2021/01/28 04:31:43;;;;;;;0.30;0.30;;;19.90;44.90;;;;;;6244578;28;20030;-60
2021/01/28 04:34:44;;;;;;;0.40;0.40;;;19.90;44.90;;;;;;6245189;28;20041;-61
2021/01/28 04:37:44;;;;;;;1.25;0.50;;;19.90;45.00;;;;;;6268586;28;20033;-61
2021/01/28 04:40:51;;;;;;;0.70;0.40;;;19.90;45.00;;;;;;6258468;28;20036;-61
2021/01/28 04:43:55;;;;;;;0.63;0.47;;;19.90;45.10;;;;;;6243296;28;20038;-60
2021/01/28 04:46:58;;;;;;;0.30;0.30;;;19.90;45.10;;;;;;6243642;28;20065;-60
2021/01/28 04:50:00;;;;;;;0.30;0.30;;;19.90;45.20;;;;;;6216717;28;20373;-61
2021/01/28 04:53:19;;;;;;;0.40;0.30;;;19.90;45.00;;;;;;6267591;28;20122;-61
2021/01/28 04:56:24;;;;;;;0.47;0.47;;;19.90;45.00;;;;;;6268022;28;20083;-61
2021/01/28 04:59:42;;;;;;;0.40;0.40;;;19.90;44.90;;;;;;6247137;28;20029;-60
2021/01/28 05:02:43;;;;;;;0.43;0.43;;;19.80;44.90;;;;;;6265186;28;20029;-59
2021/01/28 05:05:44;;;;;;;0.55;0.47;;;19.80;44.90;;;;;;6260291;28;20034;-60
2021/01/28 05:08:45;;;;;;;0.35;0.30;;;19.90;44.90;;;;;;6250294;28;20094;-61
2021/01/28 05:11:56;;;;;;;0.28;0.28;;;19.90;44.80;;;;;;6257016;28;20467;-61
2021/01/28 05:15:27;;;;;;;0.82;0.60;;;19.90;44.70;;;;;;6242655;28;20028;-61
2021/01/28 05:18:33;;;;;;;0.30;0.30;;;19.90;44.60;;;;;;6246679;28;20021;-61
2021/01/28 05:21:44;;;;;;;0.47;0.40;;;20.00;44.60;;;;;;6266085;28;20044;-61
2021/01/28 05:24:53;;;;;;;0.40;0.40;;;20.00;44.60;;;;;;6267334;28;20103;-61
2021/01/28 05:27:54;;;;;;;0.30;0.30;;;20.00;44.60;;;;;;6265163;28;20025;-60
2021/01/28 05:30:57;;;;;;;0.82;0.50;;;20.00;44.60;;;;;;6241852;28;20037;-60
2021/01/28 05:34:13;;;;;;;0.43;0.43;;;20.00;44.60;;;;;;6241570;28;20041;-61
2021/01/28 05:37:23;;;;;;;0.50;0.50;;;20.00;44.60;;;;;;6239001;28;20088;-60
2021/01/28 05:40:26;;;;;;;0.65;0.50;;;20.00;44.60;;;;;;6242124;28;20041;-61
2021/01/28 05:43:38;;;;;;;0.40;0.30;;;20.10;44.60;;;;;;6255808;28;20117;-60
2021/01/28 05:46:39;;;;;;;0.40;0.40;;;20.00;44.60;;;;;;6242389;28;20037;-61
2021/01/28 05:49:42;;;;;;;0.82;0.40;;;20.10;44.70;;;;;;6242160;28;20535;-61
2021/01/28 05:52:42;;;;;;;0.40;0.40;;;20.10;44.70;;;;;;6256905;28;20550;-60
2021/01/28 05:55:45;;;;;;;0.47;0.43;;;20.10;44.70;;;;;;6231827;28;20029;-59
2021/01/28 05:58:58;;;;;;;0.30;0.30;;;20.10;44.70;;;;;;6264980;28;20033;-61
2021/01/28 06:02:50;;;;;;;0.65;0.50;;;20.10;44.60;;;;;;6231747;28;20031;-61
2021/01/28 06:06:05;;;;;;;0.32;0.32;;;20.10;44.70;;;;;;6216639;28;20034;-60
2021/01/28 06:09:42;;;;;;;0.73;0.50;;;20.10;44.70;;;;;;6242012;28;20383;-61
2021/01/28 06:13:19;;;;;;;0.60;0.50;;;20.10;44.70;;;;;;6228706;28;20120;-60
2021/01/28 06:16:35;;;;;;;0.57;0.50;;;20.10;44.70;;;;;;6255714;28;20036;-61
2021/01/28 06:19:35;;;;;;;;;;;20.10;44.70;;;;;;6242824;28;20018;-60
2021/01/28 06:23:06;;;;;;;0.30;0.30;;;20.10;44.70;;;;;;6233401;28;19912;-61
2021/01/28 06:26:38;;;;;;;0.40;0.40;;;20.10;44.70;;;;;;6254053;28;20075;-61
2021/01/28 06:29:44;;;;;;;0.55;0.50;;;20.10;44.70;;;;;;6218517;28;20534;-61
2021/01/28 06:33:14;;;;;;;0.60;0.45;;;20.10;44.70;;;;;;6251063;28;20029;-60
2021/01/28 06:36:43;;;;;;;0.45;0.40;;;20.10;44.70;;;;;;6253586;28;20057;-61
2021/01/28 06:39:50;;;;;;;0.50;0.40;;;20.10;44.70;;;;;;6241997;28;20029;-60
2021/01/28 06:43:09;;;;;;;0.30;0.30;;;20.10;44.70;;;;;;6250921;28;20067;-60
2021/01/28 06:46:39;;;;;;;0.30;0.30;;;20.20;44.80;;;;;;6228383;28;20022;-59
2021/01/28 06:49:48;;;;;;;1.05;0.50;;;20.20;44.80;;;;;;6241932;28;20018;-61
2021/01/28 06:53:07;;;;;;;0.30;0.30;;;20.20;44.80;;;;;;6241890;28;20586;-61
2021/01/28 06:56:22;;;;;;;18.98;1.50;;;20.20;44.80;;;;;;6242073;28;20021;-63
2021/01/28 06:59:33;;;;;;;11.90;3.53;;;20.10;44.00;;;;;;6240889;28;20494;-64
2021/01/28 07:03:15;;;;;;;11.35;3.50;;;19.90;39.30;;;;;;6241369;28;20026;-61
2021/01/28 07:06:36;;;;;;;12.05;2.75;;;19.50;38.40;;;;;;6236925;28;20048;-56
2021/01/28 07:09:50;;;;;;;2.92;2.00;;;19.30;38.30;;;;;;6249349;28;20029;-60
2021/01/28 07:12:53;;;;;;;10.27;1.50;;;19.40;41.00;;;;;;6264705;28;20056;-56
2021/01/28 07:16:02;;;;;;;6.40;1.25;;;19.80;41.40;;;;;;6259481;28;20260;-54
2021/01/28 07:19:13;;;;;;;9.00;1.20;;;19.90;41.20;;;;;;6249402;28;20029;-60
2021/01/28 07:22:18;;;;;;;3.63;1.10;;;20.00;41.80;;;;;;6228921;28;20433;-60
2021/01/28 07:25:28;;;;;;;;;;;20.10;41.90;;;;;;6285775;28;20075;-57
2021/01/28 07:28:28;;;;;;;3.13;0.98;;;20.20;41.90;;;;;;6265642;28;19905;-57
2021/01/28 07:31:46;;;;;;;1.98;0.80;;;20.20;42.30;;;;;;6241874;28;20035;-54
2021/01/28 07:35:24;;;;;;;6.00;0.80;;;20.20;42.40;;;;;;6261771;28;20471;-58
2021/01/28 07:38:28;;;;;;;4.90;0.73;;;20.30;42.60;;;;;;6259393;28;20393;-54
2021/01/28 07:41:53;;;;;;;2.10;0.60;;;20.20;42.70;;;;;;6238252;28;20466;-55
2021/01/28 07:44:56;;;;;;;2.13;0.60;;;20.30;42.80;;;;;;6252891;28;20104;-59
2021/01/28 07:47:58;;;;;;;2.33;0.68;;;20.30;42.80;;;;;;6233772;28;20023;-60
2021/01/28 07:51:37;;;;;;;1.40;0.80;;;20.30;42.90;;;;;;6263804;28;20070;-56
2021/01/28 07:54:46;;;;;;;2.25;0.70;;;20.40;43.00;;;;;;6247489;28;20033;-60
2021/01/28 07:57:47;;;;;;;2.42;0.70;;;20.40;43.40;;;;;;6267524;28;20033;-58
2021/01/28 08:00:49;;;;;;;3.55;0.60;;;20.40;43.00;;;;;;6250478;28;20032;-53
2021/01/28 08:04:03;;;;;;;3.97;0.90;;;20.40;43.20;;;;;;6257691;28;20040;-53
2021/01/28 08:07:06;;;;;;;4.05;0.70;;;20.40;43.30;;;;;;6266279;28;20037;-53
2021/01/28 08:10:19;;;;;;;0.77;0.60;;;20.40;43.40;;;;;;6251478;28;20028;-57
2021/01/28 08:13:27;;;;;;;2.45;0.65;;;20.40;43.50;;;;;;6268836;28;20064;-53
2021/01/28 08:16:30;;;;;;;1.50;0.60;;;20.40;43.50;;;;;;6260474;28;20017;-59
2021/01/28 08:19:30;;;;;;;0.70;0.50;;;20.50;43.70;;;;;;6260583;28;20031;-54
2021/01/28 08:22:31;;;;;;;2.97;0.77;;;20.40;43.50;;;;;;6259944;28;20033;-56
2021/01/28 08:25:35;;;;;;;2.67;0.50;;;20.40;43.80;;;;;;6245226;28;20025;-55
2021/01/28 08:28:40;;;;;;;26.00;1.30;;;20.40;43.90;;;;;;6252345;28;20395;-56
2021/01/28 08:31:44;;;;;;;4.95;1.20;;;20.50;44.10;;;;;;6257819;28;20033;-57
2021/01/28 08:34:45;;;;;;;1.80;0.80;;;20.40;43.50;;;;;;6248511;28;20053;-56
2021/01/28 08:37:46;;;;;;;10.45;1.42;;;20.40;43.50;;;;;;6258557;28;20049;-58
2021/01/28 08:41:01;;;;;;;9.00;1.30;;;20.30;43.30;;;;;;6257136;28;20394;-55
2021/01/28 08:44:11;;;;;;;4.20;1.02;;;20.20;43.30;;;;;;6263441;28;20078;-58
2021/01/28 08:47:23;;;;;;;2.55;0.90;;;20.30;43.40;;;;;;6269508;28;20397;-53
2021/01/28 08:50:27;;;;;;;3.97;1.05;;;20.30;43.50;;;;;;6253505;28;20041;-59
2021/01/28 08:53:27;;;;;;;2.63;1.10;;;20.30;43.60;;;;;;6248193;28;20021;-59
2021/01/28 08:56:33;;;;;;;3.63;1.00;;;20.20;43.50;;;;;;6267810;28;20093;-58
2021/01/28 08:59:47;;;;;;;2.47;0.80;;;20.20;43.60;;;;;;6251654;28;20589;-56
2021/01/28 09:02:51;;;;;;;2.63;0.85;;;20.20;43.60;;;;;;6248880;28;20024;-60
2021/01/28 09:05:52;;;;;;;1.27;0.70;;;20.20;43.70;;;;;;6258044;28;20044;-58
2021/01/28 09:09:02;;;;;;;2.33;0.52;;;20.20;43.70;;;;;;6254447;28;20033;-56
2021/01/28 09:12:30;;;;;;;1.60;0.65;;;20.20;43.70;;;;;;6241221;28;20041;-58
2021/01/28 09:15:31;;;;;;;1.55;0.95;;;20.20;43.80;;;;;;6259699;28;20108;-57
2021/01/28 09:18:35;;;;;;;2.17;1.08;;;20.20;43.80;;;;;;6258948;28;20022;-59
2021/01/28 09:21:40;;;;;;;1.02;0.70;;;20.20;43.80;;;;;;6253430;28;20029;-57
2021/01/28 09:24:47;;;;;;;1.60;1.03;;;20.20;43.70;;;;;;6259055;28;20056;-57
2021/01/28 09:28:03;;;;;;;1.20;0.88;;;20.20;43.80;;;;;;6251573;28;20040;-60
2021/01/28 09:31:29;;;;;;;1.75;1.10;;;20.20;43.70;;;;;;6250762;28;20502;-57
2021/01/28 09:34:29;;;;;;;4.95;0.80;;;20.20;43.90;;;;;;6225219;28;20445;-58
2021/01/28 09:37:32;;;;;;;1.50;0.80;;;20.10;43.80;;;;;;6254606;28;20055;-60
2021/01/28 09:40:39;;;;;;;1.98;0.73;;;20.10;43.80;;;;;;6266934;28;20047;-59
2021/01/28 09:43:39;;;;;;;1.17;0.70;;;20.10;43.80;;;;;;6245348;28;20158;-58
2021/01/28 09:46:40;;;;;;;1.48;0.60;;;20.20;43.90;;;;;;6252316;28;20033;-51
2021/01/28 09:49:40;;;;;;;1.05;0.70;;;20.10;43.90;;;;;;6241982;28;20031;-54
2021/01/28 09:52:47;;;;;;;0.77;0.52;;;20.10;43.90;;;;;;6243950;28;20037;-56
2021/01/28 09:55:51;;;;;;;1.08;0.65;;;20.20;44.00;;;;;;6251514;28;20532;-50
2021/01/28 09:58:51;;;;;;;1.73;0.80;;;20.20;44.00;;;;;;6238870;28;20030;-54
2021/01/28 10:01:52;;;;;;;1.98;0.85;;;20.10;44.00;;;;;;6250690;28;20482;-56
2021/01/28 10:04:52;;;;;;;1.20;0.75;;;20.20;44.00;;;;;;6251187;28;20208;-51
2021/01/28 10:07:53;;;;;;;1.23;0.80;;;20.10;43.90;;;;;;6254552;28;20053;-52
2021/01/28 10:10:54;;;;;;;1.13;0.57;;;20.10;43.90;;;;;;6250580;28;20339;-56
2021/01/28 10:13:55;;;;;;;1.00;0.70;;;20.10;44.10;;;;;;6265410;28;20037;-52
2021/01/28 10:16:55;;;;;;;0.50;0.47;;;20.10;43.90;;;;;;6257955;28;20394;-50
2021/01/28 10:19:56;;;;;;;1.77;0.88;;;20.10;44.00;;;;;;6254617;28;20033;-54
2021/01/28 10:23:03;;;;;;;0.95;0.70;;;20.10;44.00;;;;;;6254842;28;20029;-52
2021/01/28 10:26:04;;;;;;;0.93;0.57;;;20.10;44.00;;;;;;6255378;28;20469;-53
2021/01/28 10:29:04;;;;;;;1.67;1.02;;;20.10;44.10;;;;;;6248156;28;20025;-53
2021/01/28 10:32:07;;;;;;;1.00;0.80;;;20.20;44.10;;;;;;6255535;28;20509;-52
2021/01/28 10:35:08;;;;;;;0.50;0.50;;;20.20;44.80;;;;;;6250514;28;20047;-54
2021/01/28 10:38:09;;;;;;;0.60;0.60;;;20.20;44.20;;;;;;6257092;28;20018;-51
2021/01/28 10:41:10;;;;;;;0.60;0.50;;;20.20;44.30;;;;;;6256998;28;20047;-54
2021/01/28 10:44:11;;;;;;;1.20;0.68;;;20.20;44.30;;;;;;6252931;28;20033;-54
2021/01/28 10:47:11;;;;;;;0.80;0.60;;;20.10;44.10;;;;;;6258531;28;20508;-51
2021/01/28 10:50:13;;;;;;;0.80;0.60;;;20.10;44.00;;;;;;6256984;28;20040;-53
2021/01/28 10:53:15;;;;;;;0.95;0.57;;;20.20;44.20;;;;;;6232056;28;20079;-52
2021/01/28 10:56:15;;;;;;;0.50;0.50;;;20.20;44.20;;;;;;6268854;28;20029;-52
2021/01/28 10:59:16;;;;;;;0.80;0.68;;;20.10;44.10;;;;;;6245647;28;20025;-56
2021/01/28 11:02:16;;;;;;;1.30;0.98;;;20.10;44.10;;;;;;6256575;28;20033;-54
2021/01/28 11:05:20;;;;;;;0.60;0.60;;;20.10;44.00;;;;;;6254010;28;20148;-53
2021/01/28 11:08:20;;;;;;;1.55;0.80;;;20.10;44.10;;;;;;6249983;28;20032;-51
2021/01/28 11:11:21;;;;;;;3.10;0.70;;;20.10;44.00;;;;;;6262310;28;20029;-53
2021/01/28 11:14:23;;;;;;;0.70;0.60;;;20.10;44.10;;;;;;6262885;28;20556;-55
2021/01/28 11:17:23;;;;;;;0.80;0.70;;;20.10;44.10;;;;;;6262330;28;20042;-57
2021/01/28 11:20:24;;;;;;;1.13;0.77;;;20.10;44.00;;;;;;6248051;28;20410;-53
2021/01/28 11:23:25;;;;;;;0.90;0.70;;;20.10;44.10;;;;;;6264727;28;20060;-53
2021/01/28 11:26:26;;;;;;;0.82;0.60;;;20.10;44.00;;;;;;6261072;28;20037;-55
2021/01/28 11:29:27;;;;;;;1.33;0.70;;;20.10;44.10;;;;;;6262401;28;20040;-55
2021/01/28 11:32:28;;;;;;;0.82;0.60;;;20.10;44.10;;;;;;6254761;28;20359;-51
2021/01/28 11:35:32;;;;;;;1.27;0.70;;;20.20;44.20;;;;;;6262250;28;20288;-53
2021/01/28 11:38:33;;;;;;;0.70;0.60;;;20.20;44.20;;;;;;6246941;28;20033;-50
2021/01/28 11:41:34;;;;;;;0.60;0.60;;;20.20;44.20;;;;;;6261269;28;20628;-50
2021/01/28 11:44:34;;;;;;;0.85;0.55;;;20.20;44.20;;;;;;6257626;28;20029;-53
2021/01/28 11:47:37;;;;;;;0.70;0.52;;;20.20;44.20;;;;;;6255444;28;20117;-53
2021/01/28 11:50:38;;;;;;;0.68;0.63;;;20.10;44.10;;;;;;6252970;28;20033;-53
2021/01/28 11:53:38;;;;;;;0.50;0.50;;;20.10;44.20;;;;;;6260321;28;20186;-50
2021/01/28 11:56:39;;;;;;;0.98;0.73;;;20.10;44.10;;;;;;6255227;28;20477;-55
2021/01/28 11:59:40;;;;;;;0.70;0.70;;;20.10;44.10;;;;;;6258978;28;20038;-57
2021/01/28 12:02:40;;;;;;;0.65;0.50;;;20.10;44.10;;;;;;6258940;28;20017;-58
2021/01/28 12:05:41;;;;;;;1.02;0.73;;;20.10;44.10;;;;;;6258072;28;20028;-59
2021/01/28 12:08:43;;;;;;;1.23;0.60;;;20.10;44.10;;;;;;6257554;28;20065;-59
2021/01/28 12:11:44;;;;;;;0.60;0.55;;;20.10;44.10;;;;;;6252473;28;20030;-57
2021/01/28 12:14:46;;;;;;;0.60;0.50;;;20.20;44.20;;;;;;6261169;28;20573;-58
2021/01/28 12:17:48;;;;;;;0.40;0.40;;;20.10;44.10;;;;;;6235533;28;20104;-60
2021/01/28 12:20:49;;;;;;;1.52;0.70;;;20.10;44.20;;;;;;6243172;28;20467;-58
2021/01/28 12:23:50;;;;;;;1.13;0.75;;;20.20;44.20;;;;;;6266638;28;20037;-55
2021/01/28 12:26:52;;;;;;;0.75;0.60;;;20.20;44.20;;;;;;6258941;28;20147;-60
2021/01/28 12:29:53;;;;;;;0.43;0.40;;;20.20;44.20;;;;;;6259270;28;20048;-60
2021/01/28 12:32:54;;;;;;;12.82;0.63;;;20.20;44.20;;;;;;6253616;28;20039;-60
2021/01/28 12:35:54;;;;;;;2.22;0.70;;;20.20;44.20;;;;;;6253012;28;20029;-59
2021/01/28 12:38:55;;;;;;;3.03;0.50;;;20.20;44.30;;;;;;6260469;28;20028;-53
2021/01/28 12:41:56;;;;;;;5.95;0.50;;;20.30;44.10;;;;;;6256486;28;20047;-64
2021/01/28 12:44:56;;;;;;;1.23;0.63;;;20.30;44.10;;;;;;6269781;28;20098;-65
2021/01/28 12:47:58;;;;;;;3.15;0.90;;;20.50;43.80;;;;;;6268826;28;20033;-57
2021/01/28 12:50:59;;;;;;;3.42;0.50;;;20.50;43.80;;;;;;6266561;28;20033;-58
2021/01/28 12:54:02;;;;;;;4.32;0.63;;;20.50;43.90;;;;;;6256272;28;20399;-52
2021/01/28 12:57:03;;;;;;;3.47;1.80;;;20.50;44.20;;;;;;6184486;28;20411;-59
2021/01/28 13:00:07;;;;;;;8.02;1.60;;;20.20;37.10;;;;;;6205661;28;20056;-58
2021/01/28 13:03:07;;;;;;;7.35;1.25;;;20.00;38.50;;;;;;6203426;28;20446;-58
2021/01/28 13:06:08;;;;;;;5.95;1.00;;;20.10;40.30;;;;;;6205980;28;20048;-57
2021/01/28 13:09:10;;;;;;;2.90;1.00;;;20.20;40.80;;;;;;6223377;28;20178;-59
2021/01/28 13:12:10;;;;;;;2.63;1.00;;;20.20;41.00;;;;;;6199675;28;20120;-58
2021/01/28 13:15:14;;;;;;;6.22;0.80;;;20.30;41.30;;;;;;6193238;28;20126;-58
2021/01/28 13:18:15;;;;;;;1.23;0.80;;;20.30;41.40;;;;;;6199184;28;20115;-56
2021/01/28 13:21:15;;;;;;;1.33;0.80;;;20.30;41.50;;;;;;6202506;28;20034;-60
2021/01/28 13:24:16;;;;;;;1.63;0.80;;;20.30;41.90;;;;;;6197396;28;20081;-59
2021/01/28 13:27:16;;;;;;;0.85;0.60;;;20.30;41.90;;;;;;6197322;28;20026;-58
2021/01/28 13:30:19;;;;;;;1.67;0.70;;;20.30;41.90;;;;;;6199961;28;20480;-60
2021/01/28 13:33:19;;;;;;;1.48;0.80;;;20.30;42.00;;;;;;6201077;28;20049;-57
2021/01/28 13:36:20;;;;;;;1.15;0.80;;;20.30;42.10;;;;;;6204180;28;20030;-58
2021/01/28 13:39:20;;;;;;;0.50;0.50;;;20.30;42.20;;;;;;6199375;28;20030;-60
2021/01/28 13:42:21;;;;;;;2.25;0.75;;;20.30;42.30;;;;;;6254979;28;20076;-59
2021/01/28 13:45:23;;;;;;;1.05;0.70;;;20.30;42.40;;;;;;6246784;28;20108;-58
2021/01/28 13:48:24;;;;;;;1.17;0.60;;;20.30;42.40;;;;;;6261799;28;20051;-60
2021/01/28 13:51:24;;;;;;;1.67;0.82;;;20.30;42.40;;;;;;6261878;28;20055;-59
2021/01/28 13:54:25;;;;;;;1.80;0.70;;;20.30;42.50;;;;;;6236383;28;20032;-53
2021/01/28 13:57:26;;;;;;;1.27;0.63;;;20.30;42.30;;;;;;6244814;28;20025;-58
2021/01/28 14:00:27;;;;;;;2.58;0.60;;;20.30;42.50;;;;;;6250638;28;20022;-57
2021/01/28 14:03:27;;;;;;;0.85;0.50;;;20.30;43.30;;;;;;6237875;28;20502;-53
2021/01/28 14:06:28;;;;;;;1.85;0.70;;;20.30;42.60;;;;;;6233888;28;20052;-58
2021/01/28 14:09:29;;;;;;;1.20;0.70;;;20.30;42.70;;;;;;6251879;28;20207;-56
2021/01/28 14:12:29;;;;;;;1.35;0.60;;;20.30;42.70;;;;;;6257986;28;20478;-59
2021/01/28 14:15:31;;;;;;;1.33;0.70;;;20.30;42.70;;;;;;6243963;28;20022;-57
2021/01/28 14:18:32;;;;;;;1.65;0.60;;;20.30;42.80;;;;;;6264150;28;20051;-52
2021/01/28 14:21:33;;;;;;;0.60;0.60;;;20.30;42.70;;;;;;6249713;28;20408;-56
2021/01/28 14:24:33;;;;;;;0.77;0.60;;;20.30;42.80;;;;;;6260438;28;20021;-59
2021/01/28 14:27:34;;;;;;;0.63;0.50;;;20.40;42.90;;;;;;6259053;28;20538;-59
2021/01/28 14:30:35;;;;;;;0.52;0.50;;;20.30;42.80;;;;;;6231866;28;20018;-58
2021/01/28 14:33:36;;;;;;;1.95;0.50;;;20.30;42.90;;;;;;6249734;28;20041;-55
2021/01/28 14:36:37;;;;;;;0.57;0.32;;;20.30;42.90;;;;;;6249501;28;20036;-60
2021/01/28 14:39:37;;;;;;;0.38;0.30;;;20.30;42.90;;;;;;6258427;28;20702;-59
2021/01/28 14:42:38;;;;;;;1.15;0.80;;;20.30;42.90;;;;;;6252979;28;20017;-58
2021/01/28 14:45:39;;;;;;;0.70;0.55;;;20.40;43.10;;;;;;6253808;28;20052;-60
2021/01/28 14:48:40;;;;;;;0.75;0.60;;;20.40;42.90;;;;;;6261057;28;20071;-58
2021/01/28 14:51:40;;;;;;;0.75;0.60;;;20.40;43.00;;;;;;6261338;28;20021;-60
2021/01/28 14:54:41;;;;;;;1.75;0.50;;;20.40;43.00;;;;;;6250659;28;20083;-59
2021/01/28 14:57:42;;;;;;;0.50;0.50;;;20.30;43.00;;;;;;6264697;28;20025;-60
2021/01/28 15:00:43;;;;;;;1.10;0.70;;;20.40;43.10;;;;;;6256442;28;20065;-58
2021/01/28 15:03:43;;;;;;;0.70;0.60;;;20.40;43.10;;;;;;6253250;28;20033;-59
2021/01/28 15:06:44;;;;;;;0.90;0.68;;;20.30;43.00;;;;;;6254269;28;20049;-58
2021/01/28 15:09:45;;;;;;;0.68;0.50;;;20.40;43.90;;;;;;6264451;28;20029;-58
2021/01/28 15:12:46;;;;;;;0.73;0.63;;;20.40;43.20;;;;;;6262223;28;20064;-52
2021/01/28 15:15:49;;;;;;;1.10;0.77;;;20.40;43.10;;;;;;6259559;28;20029;-58
2021/01/28 15:18:50;;;;;;;0.50;0.50;;;20.30;43.10;;;;;;6257549;28;20036;-53
2021/01/28 15:21:51;;;;;;;0.90;0.50;;;20.40;43.20;;;;;;6261040;28;20111;-56
2021/01/28 15:24:52;;;;;;;1.13;0.60;;;20.30;43.10;;;;;;6250355;28;20039;-58
2021/01/28 15:27:52;;;;;;;0.50;0.40;;;20.40;43.20;;;;;;6265089;28;20075;-58
2021/01/28 15:30:53;;;;;;;0.85;0.50;;;20.30;43.10;;;;;;6247452;28;20033;-57
2021/01/28 15:33:53;;;;;;;0.65;0.57;;;20.40;43.30;;;;;;6256643;28;20098;-60
2021/01/28 15:36:54;;;;;;;0.60;0.50;;;20.30;43.00;;;;;;6242124;28;20026;-58
2021/01/28 15:39:54;;;;;;;0.95;0.45;;;20.40;43.20;;;;;;6246683;28;20048;-56
2021/01/28 15:42:55;;;;;;;1.20;0.60;;;20.40;43.20;;;;;;6243925;28;20028;-60
2021/01/28 15:45:57;;;;;;;0.73;0.60;;;20.40;43.20;;;;;;6242055;28;20105;-57
2021/01/28 15:48:58;;;;;;;0.70;0.50;;;20.40;43.20;;;;;;6254463;28;20155;-53
2021/01/28 15:51:58;;;;;;;1.50;0.57;;;20.40;43.20;;;;;;6238212;28;20025;-59
2021/01/28 15:55:00;;;;;;;3.38;0.60;;;20.30;43.10;;;;;;6267205;28;20441;-52
2021/01/28 15:58:00;;;;;;;13.57;2.63;;;20.40;42.80;;;;;;6264022;28;20021;-54
2021/01/28 16:01:01;;;;;;;18.42;2.78;;;20.00;34.60;;;;;;6235673;28;20025;-58